Time;durP1;ratioP1;P1;durP2;ratioP2;P2;SDS_P1;SDS_P2;PMS_P1;PMS_P2;Temp;Humidity;BMP_temperature;BMP_pressure;BME280_temperature;BME280_humidity;BME280_pressure;Samples;Min_cycle;Max_cycle;Signal;HPM_P1;HPM_P2
2021/06/15 00:02:24;;;;;;;4.87;3.87;;;19.70;99.90;;;;;;5075218;28;20210;-51
2021/06/15 00:04:49;;;;;;;3.90;3.53;;;19.60;99.90;;;;;;5075020;28;20443;-51
2021/06/15 00:07:15;;;;;;;5.60;3.90;;;19.50;99.90;;;;;;5075169;28;20416;-54
2021/06/15 00:09:41;;;;;;;5.60;4.20;;;19.50;99.90;;;;;;5075324;28;20211;-50
2021/06/15 00:12:09;;;;;;;4.73;3.67;;;19.50;99.90;;;;;;5074868;28;20211;-53
2021/06/15 00:14:36;;;;;;;4.90;4.40;;;19.50;99.90;;;;;;5075613;28;20166;-50
2021/06/15 00:17:01;;;;;;;4.53;4.00;;;19.50;99.90;;;;;;5075382;28;20851;-50
2021/06/15 00:19:27;;;;;;;5.73;4.03;;;19.40;99.90;;;;;;5074927;28;20442;-50
2021/06/15 00:21:52;;;;;;;6.30;3.80;;;19.40;99.90;;;;;;5074876;28;20249;-51
2021/06/15 00:24:18;;;;;;;3.83;2.83;;;19.40;99.90;;;;;;5074843;28;20162;-52
2021/06/15 00:26:43;;;;;;;5.00;4.20;;;19.30;99.90;;;;;;5074696;28;20198;-53
2021/06/15 00:29:09;;;;;;;4.10;3.70;;;19.30;99.90;;;;;;5074633;28;20172;-51
2021/06/15 00:31:34;;;;;;;5.80;4.20;;;19.00;99.90;;;;;;5074361;28;20178;-50
2021/06/15 00:34:00;;;;;;;4.30;3.90;;;18.90;99.90;;;;;;5074279;28;20178;-51
2021/06/15 00:36:26;;;;;;;4.47;3.80;;;18.80;99.90;;;;;;5073969;28;20219;-51
2021/06/15 00:38:52;;;;;;;5.33;3.83;;;18.80;99.90;;;;;;5073573;28;20166;-51
2021/06/15 00:41:17;;;;;;;4.90;3.90;;;18.80;99.90;;;;;;5074028;28;20226;-50
2021/06/15 00:43:43;;;;;;;7.60;4.00;;;18.70;99.90;;;;;;5073937;28;20197;-51
2021/06/15 00:46:09;;;;;;;4.13;3.67;;;18.70;99.90;;;;;;5074009;28;20202;-50
2021/06/15 00:48:36;;;;;;;3.90;3.60;;;18.70;99.90;;;;;;5074620;28;20169;-50
2021/06/15 00:51:04;;;;;;;5.40;3.87;;;18.80;99.90;;;;;;5073724;28;20158;-53
2021/06/15 00:53:30;;;;;;;4.40;3.33;;;18.80;99.90;;;;;;5073965;28;20470;-54
2021/06/15 00:55:57;;;;;;;5.67;3.90;;;18.80;99.90;;;;;;5074010;28;20397;-50
2021/06/15 00:58:23;;;;;;;5.40;4.17;;;18.80;99.90;;;;;;5074417;28;20400;-51
2021/06/15 01:00:49;;;;;;;4.50;3.80;;;18.80;99.90;;;;;;5073772;28;20466;-50
2021/06/15 01:03:15;;;;;;;4.90;4.40;;;18.80;99.90;;;;;;5073638;28;20268;-51
2021/06/15 01:05:42;;;;;;;4.80;3.40;;;18.90;99.90;;;;;;5073355;28;20519;-50
2021/06/15 01:08:16;;;;;;;4.30;3.90;;;19.00;99.90;;;;;;5073686;28;20901;-52
2021/06/15 01:11:01;;;;;;;4.30;4.00;;;19.00;99.90;;;;;;5073397;28;20403;-50
2021/06/15 01:13:49;;;;;;;3.73;3.43;;;19.00;99.90;;;;;;5073789;28;20420;-51
2021/06/15 01:16:18;;;;;;;4.77;3.90;;;19.10;99.90;;;;;;5073782;28;20428;-50
2021/06/15 01:18:48;;;;;;;4.10;3.70;;;19.00;99.90;;;;;;5073503;28;20966;-50
2021/06/15 01:21:14;;;;;;;4.70;3.83;;;19.00;99.90;;;;;;5073341;28;20434;-51
2021/06/15 01:23:55;;;;;;;4.07;3.50;;;18.90;99.90;;;;;;5073359;28;20471;-52
2021/06/15 01:26:58;;;;;;;5.50;4.53;;;18.90;99.90;;;;;;5073439;28;20523;-50
2021/06/15 01:29:31;;;;;;;4.70;4.30;;;18.90;99.90;;;;;;5073797;28;20476;-50
2021/06/15 01:32:04;;;;;;;4.77;4.13;;;18.70;99.90;;;;;;5073139;28;20921;-50
2021/06/15 01:34:32;;;;;;;4.90;4.50;;;18.60;99.90;;;;;;5073280;28;20531;-50
2021/06/15 01:37:23;;;;;;;3.90;3.60;;;18.60;99.90;;;;;;5073263;28;20396;-50
2021/06/15 01:39:54;;;;;;;4.90;4.40;;;18.60;99.90;;;;;;5073603;28;20763;-52
2021/06/15 01:42:27;;;;;;;5.23;4.57;;;18.50;99.90;;;;;;5073167;28;20810;-49
2021/06/15 01:45:00;;;;;;;6.60;3.83;;;18.50;99.90;;;;;;5073514;28;20817;-50
2021/06/15 01:47:27;;;;;;;3.83;3.50;;;18.60;99.90;;;;;;5073753;28;20763;-50
2021/06/15 01:49:56;;;;;;;6.23;4.37;;;18.60;99.90;;;;;;5073260;28;20404;-53
2021/06/15 01:52:29;;;;;;;4.00;3.60;;;18.60;99.90;;;;;;5074248;28;20461;-50
2021/06/15 01:54:56;;;;;;;5.80;4.07;;;18.60;99.90;;;;;;5074646;28;20376;-52
2021/06/15 01:57:23;;;;;;;5.77;4.27;;;18.60;99.90;;;;;;5074428;28;20415;-50
2021/06/15 01:59:50;;;;;;;4.67;4.27;;;18.60;99.90;;;;;;5073981;28;20423;-50
2021/06/15 02:02:17;;;;;;;5.30;4.60;;;18.50;99.90;;;;;;5075755;28;20428;-50
2021/06/15 02:04:47;;;;;;;4.77;4.37;;;18.40;99.90;;;;;;5072613;28;20399;-54
2021/06/15 02:07:17;;;;;;;5.73;4.80;;;18.50;99.90;;;;;;5072889;28;20826;-51
2021/06/15 02:09:46;;;;;;;6.23;4.57;;;18.50;99.90;;;;;;5054936;28;20401;-51
2021/06/15 02:12:14;;;;;;;7.00;3.97;;;18.50;99.90;;;;;;5072751;28;20808;-51
2021/06/15 02:14:40;;;;;;;5.23;3.90;;;18.50;99.90;;;;;;5072881;28;20403;-53
2021/06/15 02:17:07;;;;;;;4.60;4.17;;;18.50;99.90;;;;;;5072879;28;20776;-50
2021/06/15 02:19:34;;;;;;;5.30;4.90;;;18.20;99.90;;;;;;5072979;28;20411;-50
2021/06/15 02:22:06;;;;;;;5.53;4.20;;;18.20;99.90;;;;;;5073201;28;20527;-50
2021/06/15 02:24:37;;;;;;;9.20;4.47;;;18.20;99.90;;;;;;5073353;28;20468;-50
2021/06/15 02:27:04;;;;;;;4.63;4.23;;;18.20;99.90;;;;;;5072940;28;20389;-51
2021/06/15 02:29:30;;;;;;;4.10;3.70;;;18.20;99.90;;;;;;5070602;28;20787;-50
2021/06/15 02:31:58;;;;;;;4.63;3.70;;;18.20;99.90;;;;;;5072730;28;20411;-53
2021/06/15 02:34:28;;;;;;;4.50;4.10;;;18.30;99.90;;;;;;5072766;28;20509;-52
2021/06/15 02:36:54;;;;;;;5.50;5.00;;;18.20;99.90;;;;;;5072983;28;20461;-52
2021/06/15 02:39:24;;;;;;;4.50;4.10;;;18.20;99.90;;;;;;5071802;28;20427;-50
2021/06/15 02:41:53;;;;;;;6.47;4.37;;;18.20;99.90;;;;;;5073280;28;20911;-54
2021/06/15 02:44:21;;;;;;;4.80;4.07;;;18.20;99.90;;;;;;5113439;22;20478;-52
2021/06/15 02:46:50;;;;;;;4.53;4.13;;;18.20;99.90;;;;;;5092638;28;20551;-57
2021/06/15 02:49:20;;;;;;;5.27;4.80;;;18.10;99.90;;;;;;5092979;28;20399;-55
2021/06/15 02:52:15;;;;;;;5.20;4.40;;;18.10;99.90;;;;;;5092425;28;20486;-55
2021/06/15 02:54:47;;;;;;;4.83;3.63;;;18.00;99.90;;;;;;5073007;28;20846;-57
2021/06/15 02:57:14;;;;;;;8.90;5.77;;;17.90;99.90;;;;;;5069897;28;20519;-55
2021/06/15 02:59:41;;;;;;;4.70;4.30;;;17.90;99.90;;;;;;5062708;28;20396;-56
2021/06/15 03:02:07;;;;;;;7.50;5.00;;;17.90;99.90;;;;;;5075163;28;20403;-57
2021/06/15 03:04:32;;;;;;;4.97;4.57;;;17.90;99.90;;;;;;5076347;28;20413;-55
2021/06/15 03:06:58;;;;;;;4.03;3.70;;;17.90;99.90;;;;;;5076025;28;20248;-57
2021/06/15 03:09:24;;;;;;;7.13;5.00;;;18.00;99.90;;;;;;5076069;28;20178;-56
2021/06/15 03:12:08;;;;;;;4.40;4.00;;;18.00;99.90;;;;;;5076047;28;20170;-56
2021/06/15 03:14:35;;;;;;;4.43;4.10;;;18.00;99.90;;;;;;5075940;28;20431;-57
2021/06/15 03:17:05;;;;;;;4.60;4.30;;;18.00;99.90;;;;;;5076097;28;20412;-56
2021/06/15 03:20:00;;;;;;;5.13;4.60;;;17.90;99.90;;;;;;5075843;28;20765;-54
2021/06/15 03:22:32;;;;;;;4.93;4.43;;;17.90;99.90;;;;;;5075701;28;20405;-57
2021/06/15 03:25:04;;;;;;;5.87;4.53;;;17.90;99.90;;;;;;5076204;28;20437;-57
2021/06/15 03:27:44;;;;;;;6.60;5.83;;;17.90;99.90;;;;;;5075345;28;20404;-55
2021/06/15 03:30:12;;;;;;;5.10;4.37;;;18.00;99.90;;;;;;5075511;28;20403;-56
2021/06/15 03:32:49;;;;;;;4.97;4.50;;;18.00;99.90;;;;;;5075745;28;20983;-57
2021/06/15 03:35:17;;;;;;;6.60;5.37;;;17.90;99.90;;;;;;5075191;28;20394;-56
2021/06/15 03:37:50;;;;;;;8.27;4.80;;;17.80;99.90;;;;;;5076114;28;20912;-57
2021/06/15 03:40:17;;;;;;;5.70;5.10;;;17.70;99.90;;;;;;5075690;28;20755;-54
2021/06/15 03:42:43;;;;;;;5.87;5.37;;;17.70;99.90;;;;;;5075045;28;20435;-57
2021/06/15 03:45:10;;;;;;;7.13;5.00;;;17.90;99.90;;;;;;5075512;28;20773;-55
2021/06/15 03:47:39;;;;;;;5.40;4.90;;;17.90;99.90;;;;;;5075226;28;20392;-56
2021/06/15 03:50:08;;;;;;;4.97;4.30;;;17.90;99.90;;;;;;5074939;28;20418;-56
2021/06/15 03:52:39;;;;;;;7.13;4.70;;;17.90;99.90;;;;;;5075739;28;20471;-58
2021/06/15 03:55:07;;;;;;;5.27;4.83;;;17.90;99.90;;;;;;5076657;28;20409;-57
2021/06/15 03:57:35;;;;;;;5.63;4.60;;;17.90;99.90;;;;;;5074858;28;20400;-58
2021/06/15 04:00:03;;;;;;;5.83;5.33;;;18.00;99.90;;;;;;5075314;28;20774;-54
2021/06/15 04:02:33;;;;;;;6.57;5.17;;;17.80;99.90;;;;;;5074973;28;20404;-56
2021/06/15 04:05:00;;;;;;;6.67;4.57;;;17.70;99.90;;;;;;5074751;28;20440;-57
2021/06/15 04:07:26;;;;;;;4.80;4.40;;;17.80;99.90;;;;;;5075178;28;20403;-56
2021/06/15 04:09:52;;;;;;;4.60;4.20;;;17.90;99.90;;;;;;5074902;28;20706;-57
2021/06/15 04:12:23;;;;;;;5.73;5.23;;;18.00;99.90;;;;;;5074337;28;20408;-58
2021/06/15 04:14:51;;;;;;;6.80;6.10;;;18.00;99.90;;;;;;5075024;28;20264;-57
2021/06/15 04:17:21;;;;;;;6.40;4.70;;;18.10;99.90;;;;;;5075049;28;20400;-56
2021/06/15 04:19:49;;;;;;;5.10;4.60;;;18.00;99.90;;;;;;5074428;28;20410;-59
2021/06/15 04:22:17;;;;;;;5.67;4.57;;;17.80;99.90;;;;;;5074834;28;20412;-57
2021/06/15 04:24:49;;;;;;;6.47;4.50;;;17.80;99.90;;;;;;5074759;28;20428;-58
2021/06/15 04:27:21;;;;;;;6.17;5.60;;;17.90;99.90;;;;;;5074619;28;20435;-56
2021/06/15 04:29:48;;;;;;;5.20;4.80;;;17.90;99.90;;;;;;5074657;28;20440;-57
2021/06/15 04:32:18;;;;;;;4.93;4.53;;;18.00;99.90;;;;;;5074649;28;20407;-57
2021/06/15 04:34:48;;;;;;;6.07;5.27;;;18.00;99.90;;;;;;5057158;28;20396;-54
2021/06/15 04:37:15;;;;;;;6.10;5.33;;;17.90;99.90;;;;;;5074190;28;20392;-57
2021/06/15 04:40:12;;;;;;;4.87;4.47;;;17.90;99.90;;;;;;5074677;28;20412;-57
2021/06/15 04:42:44;;;;;;;5.97;4.67;;;17.90;99.90;;;;;;5073239;28;20439;-56
2021/06/15 04:45:10;;;;;;;5.60;5.00;;;18.00;99.90;;;;;;5074205;28;20496;-55
2021/06/15 04:47:41;;;;;;;5.80;5.20;;;18.00;99.90;;;;;;5074332;28;20764;-57
2021/06/15 04:50:28;;;;;;;6.57;4.73;;;18.10;99.90;;;;;;5074028;28;20427;-57
2021/06/15 04:52:56;;;;;;;5.50;5.00;;;18.20;99.90;;;;;;5073904;28;20909;-57
2021/06/15 04:55:26;;;;;;;5.00;4.50;;;18.20;99.90;;;;;;5073860;28;20408;-53
2021/06/15 04:57:54;;;;;;;7.13;5.47;;;18.30;99.90;;;;;;5073558;28;20400;-57
2021/06/15 05:00:25;;;;;;;6.93;5.80;;;18.30;99.90;;;;;;5073958;28;20782;-56
2021/06/15 05:02:52;;;;;;;6.93;5.13;;;18.40;99.90;;;;;;5073708;28;20428;-56
2021/06/15 05:05:20;;;;;;;7.20;5.57;;;18.50;99.90;;;;;;5073752;28;20440;-57
2021/06/15 05:07:48;;;;;;;6.30;5.40;;;18.50;99.90;;;;;;5073615;28;20454;-57
2021/06/15 05:10:14;;;;;;;7.80;5.57;;;18.70;99.90;;;;;;5073756;28;20464;-58
2021/06/15 05:12:43;;;;;;;5.27;4.27;;;18.80;99.90;;;;;;5073483;28;20762;-56
2021/06/15 05:15:11;;;;;;;5.83;5.33;;;18.90;99.90;;;;;;5074815;28;20416;-56
2021/06/15 05:17:39;;;;;;;6.23;5.00;;;18.90;99.90;;;;;;5074090;28;20408;-56
2021/06/15 05:20:06;;;;;;;5.37;4.87;;;19.10;99.90;;;;;;5073419;28;20771;-58
2021/06/15 05:22:38;;;;;;;5.23;4.73;;;19.30;99.90;;;;;;5073603;28;20773;-58
2021/06/15 05:25:04;;;;;;;5.10;4.70;;;19.40;99.90;;;;;;5072879;28;20439;-56
2021/06/15 05:27:33;;;;;;;5.93;5.40;;;19.60;99.90;;;;;;5073468;28;20409;-57
2021/06/15 05:30:01;;;;;;;5.40;4.83;;;19.70;99.90;;;;;;5073453;28;20850;-56
2021/06/15 05:32:30;;;;;;;6.00;5.40;;;19.80;99.90;;;;;;5073145;28;20397;-55
2021/06/15 05:34:57;;;;;;;6.63;4.83;;;19.90;99.90;;;;;;5073352;28;20917;-57
2021/06/15 05:37:23;;;;;;;5.23;4.73;;;20.00;99.90;;;;;;5072734;28;20454;-57
2021/06/15 05:39:49;;;;;;;4.10;3.70;;;20.10;99.90;;;;;;5072940;28;20408;-55
2021/06/15 05:42:15;;;;;;;5.90;4.30;;;20.20;99.90;;;;;;5072856;28;20407;-54
2021/06/15 05:44:41;;;;;;;5.10;4.40;;;20.40;99.90;;;;;;5072688;28;20692;-56
2021/06/15 05:47:08;;;;;;;7.03;5.47;;;20.50;99.90;;;;;;5073388;28;20162;-56
2021/06/15 05:49:33;;;;;;;5.40;4.90;;;20.60;99.90;;;;;;5075476;28;20418;-57
2021/06/15 05:52:11;;;;;;;6.20;5.60;;;20.70;99.90;;;;;;5060835;28;20421;-57
2021/06/15 05:54:37;;;;;;;6.43;5.13;;;20.80;99.90;;;;;;5072859;28;20186;-56
2021/06/15 05:57:04;;;;;;;5.03;4.60;;;21.00;99.90;;;;;;5072945;28;20396;-55
2021/06/15 05:59:29;;;;;;;4.70;4.30;;;21.10;99.90;;;;;;5072952;28;20440;-57
2021/06/15 06:01:55;;;;;;;6.80;4.30;;;21.30;99.90;;;;;;5072834;28;20444;-57
2021/06/15 06:04:26;;;;;;;5.87;4.50;;;21.50;99.90;;;;;;5072862;28;20264;-57
2021/06/15 06:09:38;;;;;;;6.33;3.97;;;21.70;99.90;;;;;;5073298;28;20395;-56
2021/06/15 06:12:04;;;;;;;4.83;4.27;;;21.80;99.90;;;;;;5072366;28;20420;-57
2021/06/15 06:14:30;;;;;;;6.03;5.17;;;21.90;99.90;;;;;;5071381;28;20442;-57
2021/06/15 06:16:56;;;;;;;6.43;4.03;;;21.90;99.90;;;;;;5072497;28;20483;-57
2021/06/15 06:19:21;;;;;;;6.67;5.80;;;22.00;99.90;;;;;;5072600;28;20170;-56
2021/06/15 06:21:48;;;;;;;6.20;5.60;;;22.00;99.90;;;;;;5072472;28;20256;-55
2021/06/15 06:24:14;;;;;;;5.73;5.10;;;22.20;99.90;;;;;;5072817;28;20549;-56
2021/06/15 06:26:40;;;;;;;5.80;4.90;;;22.30;99.90;;;;;;5072817;28;20451;-56
2021/06/15 06:29:06;;;;;;;5.90;5.30;;;22.40;99.90;;;;;;5072967;28;20170;-57
2021/06/15 06:31:32;;;;;;;8.60;4.97;;;22.50;99.90;;;;;;5072798;28;20400;-56
2021/06/15 06:33:58;;;;;;;8.13;6.00;;;22.70;99.90;;;;;;5072484;28;20915;-56
2021/06/15 06:36:23;;;;;;;7.43;6.20;;;22.70;99.90;;;;;;5075976;28;20404;-56
2021/06/15 06:38:51;;;;;;;9.37;5.63;;;22.60;99.90;;;;;;5076883;28;20203;-55
2021/06/15 06:41:17;;;;;;;6.73;5.10;;;22.70;99.90;;;;;;5076632;28;20173;-56
2021/06/15 06:43:43;;;;;;;6.60;5.67;;;22.90;99.90;;;;;;5076184;28;20538;-57
2021/06/15 06:46:09;;;;;;;6.60;5.50;;;22.90;99.90;;;;;;5076352;28;20884;-55
2021/06/15 06:48:34;;;;;;;7.13;5.23;;;23.10;99.90;;;;;;5074990;28;20643;-56
2021/06/15 06:51:00;;;;;;;7.00;6.20;;;23.20;99.90;;;;;;5075842;28;20181;-55
2021/06/15 06:53:26;;;;;;;6.90;5.70;;;23.20;99.90;;;;;;5076059;28;20283;-57
2021/06/15 06:55:51;;;;;;;8.23;5.30;;;23.20;99.90;;;;;;5076249;28;20177;-57
2021/06/15 06:58:17;;;;;;;6.53;4.30;;;23.10;99.90;;;;;;5076248;28;20174;-55
2021/06/15 07:00:42;;;;;;;5.20;4.70;;;23.10;99.90;;;;;;5076094;28;20655;-56
2021/06/15 07:03:08;;;;;;;8.67;5.27;;;23.10;99.90;;;;;;5075649;28;20186;-56
2021/06/15 07:05:34;;;;;;;8.50;5.50;;;23.20;99.90;;;;;;5075534;28;20189;-56
2021/06/15 07:07:59;;;;;;;5.80;5.27;;;23.30;99.90;;;;;;5075924;28;20170;-55
2021/06/15 07:10:25;;;;;;;5.60;5.10;;;23.20;99.90;;;;;;5075810;28;20166;-57
2021/06/15 07:12:51;;;;;;;5.93;4.90;;;23.30;99.90;;;;;;5075690;28;20201;-55
2021/06/15 07:15:17;;;;;;;6.60;5.27;;;23.30;99.90;;;;;;5076015;28;20181;-57
2021/06/15 07:17:43;;;;;;;5.93;4.47;;;23.30;99.90;;;;;;5075751;28;20174;-57
2021/06/15 07:20:09;;;;;;;6.77;4.73;;;23.30;99.90;;;;;;5075164;28;20419;-57
2021/06/15 07:22:36;;;;;;;7.50;4.50;;;23.40;99.90;;;;;;5075924;28;20194;-56
2021/06/15 07:25:03;;;;;;;6.20;5.20;;;23.70;99.90;;;;;;5075491;28;20443;-57
2021/06/15 07:27:29;;;;;;;6.30;5.37;;;23.70;99.90;;;;;;5075532;28;20462;-58
2021/06/15 07:29:55;;;;;;;6.47;4.00;;;24.00;99.90;;;;;;5075854;28;20810;-56
2021/06/15 07:32:20;;;;;;;6.63;5.40;;;24.20;99.90;;;;;;5075512;28;20166;-57
2021/06/15 07:34:46;;;;;;;12.10;5.43;;;24.30;99.90;;;;;;5075446;28;20201;-58
2021/06/15 07:37:11;;;;;;;9.07;5.27;;;24.50;99.90;;;;;;5075930;28;20177;-58
2021/06/15 07:39:37;;;;;;;8.27;5.10;;;24.40;99.90;;;;;;5075668;28;20688;-55
2021/06/15 07:42:03;;;;;;;8.50;6.20;;;24.40;99.90;;;;;;5075905;28;20198;-56
2021/06/15 07:44:29;;;;;;;8.07;5.30;;;24.30;99.90;;;;;;5075264;28;20258;-56
2021/06/15 07:46:55;;;;;;;8.30;5.07;;;24.30;99.90;;;;;;5074639;28;20463;-56
2021/06/15 07:49:22;;;;;;;6.90;6.20;;;24.30;99.90;;;;;;5077466;28;20416;-54
2021/06/15 07:51:48;;;;;;;8.23;5.73;;;24.40;99.90;;;;;;5075231;28;20174;-57
2021/06/15 07:54:14;;;;;;;6.83;5.50;;;24.60;99.90;;;;;;5075011;28;20974;-52
2021/06/15 07:56:39;;;;;;;9.57;5.80;;;24.70;99.90;;;;;;5074971;28;20491;-53
2021/06/15 07:59:05;;;;;;;10.43;5.80;;;24.70;99.90;;;;;;5075065;28;20193;-56
2021/06/15 08:01:31;;;;;;;8.90;5.60;;;24.70;99.90;;;;;;5075481;28;20261;-56
2021/06/15 08:03:56;;;;;;;6.40;5.40;;;24.60;99.90;;;;;;5074606;28;20613;-58
2021/06/15 08:06:22;;;;;;;6.10;4.70;;;24.60;99.90;;;;;;5075020;28;20204;-54
2021/06/15 08:08:48;;;;;;;6.70;5.53;;;24.60;99.90;;;;;;5075301;28;20174;-54
2021/06/15 08:11:13;;;;;;;7.07;5.00;;;24.70;99.90;;;;;;5075068;28;20174;-54
2021/06/15 08:13:39;;;;;;;12.47;5.57;;;24.60;99.90;;;;;;5075109;28;20622;-56
2021/06/15 08:16:05;;;;;;;7.50;5.67;;;24.60;99.90;;;;;;5074686;28;20665;-56
2021/06/15 08:18:30;;;;;;;8.57;5.07;;;24.70;99.90;;;;;;5074456;28;20189;-56
2021/06/15 08:20:57;;;;;;;10.03;5.20;;;24.80;99.90;;;;;;5074363;28;20595;-56
2021/06/15 08:23:23;;;;;;;10.97;5.50;;;24.90;99.80;;;;;;5074790;28;20201;-55
2021/06/15 08:25:49;;;;;;;7.20;5.30;;;25.00;99.90;;;;;;5074645;28;20448;-57
2021/06/15 08:28:15;;;;;;;7.03;4.23;;;25.20;99.20;;;;;;5074522;28;20407;-57
2021/06/15 08:30:41;;;;;;;6.03;4.40;;;25.40;98.30;;;;;;5074264;28;20475;-57
2021/06/15 08:33:07;;;;;;;6.33;4.87;;;25.50;98.10;;;;;;5074257;28;20217;-57
2021/06/15 08:35:34;;;;;;;6.60;4.40;;;25.50;98.00;;;;;;5073815;28;20807;-57
2021/06/15 08:37:59;;;;;;;8.20;4.93;;;25.70;97.10;;;;;;5074570;28;20268;-57
2021/06/15 08:40:25;;;;;;;4.50;4.10;;;25.80;97.40;;;;;;5074808;28;20451;-57
2021/06/15 08:42:51;;;;;;;4.70;3.60;;;25.90;95.30;;;;;;5073334;28;20221;-53
2021/06/15 08:45:17;;;;;;;3.83;3.43;;;26.00;95.20;;;;;;5063360;28;20616;-55
2021/06/15 08:47:49;;;;;;;7.37;4.90;;;26.20;95.30;;;;;;5053934;28;20221;-57
2021/06/15 08:50:21;;;;;;;6.23;4.60;;;26.00;94.90;;;;;;5071850;28;20495;-55
2021/06/15 08:52:48;;;;;;;4.67;4.23;;;26.00;94.80;;;;;;5073837;28;20843;-55
2021/06/15 08:55:15;;;;;;;5.20;4.40;;;26.10;95.60;;;;;;5073655;28;20404;-54
2021/06/15 08:57:41;;;;;;;7.17;3.80;;;26.20;94.10;;;;;;5073398;28;20422;-56
2021/06/15 09:00:10;;;;;;;9.33;3.80;;;26.30;93.30;;;;;;5073201;28;20404;-59
2021/06/15 09:02:47;;;;;;;5.27;4.27;;;26.50;92.30;;;;;;5073937;28;20427;-60
2021/06/15 09:05:18;;;;;;;7.67;3.40;;;26.50;92.50;;;;;;5073109;28;20448;-60
2021/06/15 09:08:01;;;;;;;7.30;4.20;;;26.60;92.60;;;;;;5074314;28;20499;-59
2021/06/15 09:10:31;;;;;;;5.50;3.80;;;26.70;91.60;;;;;;5073790;28;20388;-58
2021/06/15 09:12:58;;;;;;;4.10;3.33;;;26.70;91.40;;;;;;5073637;28;20429;-59
2021/06/15 09:15:24;;;;;;;4.87;3.30;;;26.80;90.70;;;;;;5073567;28;20404;-59
2021/06/15 09:17:50;;;;;;;5.10;4.17;;;26.90;90.90;;;;;;5073911;28;20454;-59
2021/06/15 09:20:26;;;;;;;4.97;4.53;;;26.90;91.40;;;;;;5073257;28;20783;-59
2021/06/15 09:23:10;;;;;;;4.80;3.53;;;27.00;91.70;;;;;;5073567;28;20424;-58
2021/06/15 09:25:36;;;;;;;7.77;4.43;;;27.10;90.90;;;;;;5073210;28;21129;-59
2021/06/15 09:28:21;;;;;;;6.03;3.80;;;27.00;91.20;;;;;;5073267;28;20412;-59
2021/06/15 09:31:04;;;;;;;6.63;3.73;;;26.90;90.60;;;;;;5073411;28;20162;-60
2021/06/15 09:33:42;;;;;;;4.50;4.03;;;27.10;90.80;;;;;;5073225;28;20428;-60
2021/06/15 09:36:29;;;;;;;6.03;3.97;;;27.10;90.30;;;;;;5073213;28;20384;-60
2021/06/15 09:39:03;;;;;;;4.97;3.50;;;27.30;89.10;;;;;;5073488;28;20392;-59
2021/06/15 09:41:44;;;;;;;3.53;3.17;;;27.30;87.90;;;;;;5073284;28;20401;-59
2021/06/15 09:44:15;;;;;;;7.60;3.43;;;27.50;88.00;;;;;;5072905;28;20450;-59
2021/06/15 09:46:54;;;;;;;5.33;3.57;;;27.50;86.40;;;;;;5075619;28;20454;-59
2021/06/15 09:49:29;;;;;;;5.53;3.23;;;27.70;87.60;;;;;;5072620;28;20450;-60
2021/06/15 09:52:13;;;;;;;4.97;3.57;;;27.70;85.80;;;;;;5072847;28;20519;-59
2021/06/15 09:54:48;;;;;;;5.30;3.07;;;27.60;86.20;;;;;;5072810;28;20570;-57
2021/06/15 09:57:21;;;;;;;4.63;3.60;;;27.30;85.70;;;;;;5073237;28;20881;-59
2021/06/15 10:00:05;;;;;;;4.40;3.27;;;27.30;85.20;;;;;;5073048;28;20392;-59
2021/06/15 10:02:31;;;;;;;3.47;3.10;;;27.60;83.20;;;;;;5072822;28;20445;-59
2021/06/15 10:04:57;;;;;;;3.80;3.33;;;27.80;85.30;;;;;;5072554;28;20784;-59
2021/06/15 10:07:30;;;;;;;3.87;3.33;;;27.90;82.10;;;;;;5072749;28;20408;-58
2021/06/15 10:09:57;;;;;;;4.43;3.40;;;27.90;81.60;;;;;;5075472;28;20165;-59
2021/06/15 10:12:24;;;;;;;4.43;3.70;;;27.80;81.60;;;;;;5079689;28;20434;-59
2021/06/15 10:14:52;;;;;;;4.73;3.43;;;27.90;81.40;;;;;;5079724;28;20398;-59
2021/06/15 10:17:19;;;;;;;3.70;3.10;;;28.20;80.40;;;;;;5080203;28;20414;-58
2021/06/15 10:19:45;;;;;;;4.50;2.60;;;28.30;81.40;;;;;;5078968;28;20920;-57
2021/06/15 10:22:11;;;;;;;5.00;3.10;;;28.40;78.90;;;;;;5079840;28;20392;-59
2021/06/15 10:24:40;;;;;;;3.20;2.90;;;28.50;77.80;;;;;;5079655;28;20228;-59
2021/06/15 10:27:09;;;;;;;3.50;2.80;;;28.60;77.00;;;;;;5079993;28;20951;-59
2021/06/15 10:29:36;;;;;;;3.07;2.67;;;28.50;77.10;;;;;;5077306;28;20947;-60
2021/06/15 10:32:14;;;;;;;5.37;3.30;;;28.50;75.20;;;;;;5068165;28;20409;-58
2021/06/15 10:35:04;;;;;;;4.33;3.57;;;28.60;76.50;;;;;;5078913;28;20420;-59
2021/06/15 10:37:36;;;;;;;3.83;3.07;;;28.60;75.40;;;;;;5079398;28;20392;-59
2021/06/15 10:40:25;;;;;;;3.50;3.13;;;28.70;73.50;;;;;;5079225;28;20415;-59
2021/06/15 10:43:26;;;;;;;5.03;3.10;;;28.70;72.60;;;;;;5079128;28;20515;-59
2021/06/15 10:46:00;;;;;;;3.03;2.73;;;28.80;71.70;;;;;;5079456;28;20477;-59
2021/06/15 10:48:29;;;;;;;4.60;2.57;;;29.10;71.30;;;;;;5079401;28;20514;-59
2021/06/15 10:50:58;;;;;;;4.33;2.80;;;28.90;72.00;;;;;;5078779;28;20411;-59
2021/06/15 10:53:37;;;;;;;4.43;2.87;;;29.10;71.00;;;;;;5079417;28;20428;-59
2021/06/15 10:56:06;;;;;;;3.60;3.30;;;29.40;70.00;;;;;;5079549;28;20422;-60
2021/06/15 10:58:31;;;;;;;4.07;3.17;;;29.80;71.00;;;;;;5079114;28;20940;-60
2021/06/15 11:01:31;;;;;;;5.53;3.07;;;30.00;69.30;;;;;;5079302;28;20408;-60
2021/06/15 11:04:00;;;;;;;3.77;2.83;;;30.00;70.10;;;;;;5078843;28;20202;-60
2021/06/15 11:06:28;;;;;;;5.03;2.53;;;30.10;67.60;;;;;;5078953;28;20786;-60
2021/06/15 11:09:03;;;;;;;5.47;3.03;;;30.30;67.80;;;;;;5079029;28;20398;-60
2021/06/15 11:11:30;;;;;;;2.67;2.47;;;30.30;65.70;;;;;;5079238;28;20402;-58
2021/06/15 11:14:04;;;;;;;2.97;2.67;;;30.20;65.40;;;;;;5078895;28;20952;-61
2021/06/15 11:16:36;;;;;;;3.60;3.03;;;30.20;66.20;;;;;;5079367;28;20416;-59
2021/06/15 11:19:13;;;;;;;4.00;2.90;;;30.30;65.10;;;;;;5078784;28;20764;-59
2021/06/15 11:22:03;;;;;;;3.43;3.13;;;30.10;64.10;;;;;;5076566;28;20392;-59
2021/06/15 11:27:27;;;;;;;2.80;2.60;;;29.80;64.10;;;;;;5075572;28;20790;-58
2021/06/15 11:29:54;;;;;;;7.27;2.70;;;29.60;66.90;;;;;;5076210;28;20384;-58
2021/06/15 11:32:24;;;;;;;4.47;2.80;;;30.20;65.00;;;;;;5075467;28;20491;-59
2021/06/15 11:34:55;;;;;;;3.13;2.20;;;31.00;63.70;;;;;;5075243;28;20405;-59
2021/06/15 11:37:37;;;;;;;2.50;2.30;;;32.10;59.50;;;;;;5075604;28;20821;-59
2021/06/15 11:40:32;;;;;;;2.87;2.53;;;33.60;56.30;;;;;;5075413;28;20412;-59
2021/06/15 11:43:11;;;;;;;3.83;2.47;;;34.70;51.60;;;;;;5089335;28;20457;-59
2021/06/15 11:45:40;;;;;;;2.40;2.20;;;35.90;48.60;;;;;;5095676;28;20462;-58
2021/06/15 11:48:32;;;;;;;2.53;2.07;;;37.00;46.70;;;;;;5095421;28;20490;-60
2021/06/15 11:51:25;;;;;;;4.40;2.37;;;37.80;43.80;;;;;;5073294;28;21029;-60
2021/06/15 11:53:53;;;;;;;3.50;2.23;;;38.00;42.30;;;;;;5075069;28;20424;-60
2021/06/15 11:56:23;;;;;;;3.10;2.23;;;37.90;43.10;;;;;;5075167;28;20404;-60
2021/06/15 11:58:55;;;;;;;3.10;2.20;;;39.60;41.20;;;;;;5075252;28;20783;-60
2021/06/15 12:01:22;;;;;;;5.67;2.30;;;38.40;40.50;;;;;;5074867;28;20392;-59
2021/06/15 12:03:49;;;;;;;2.33;1.97;;;37.30;41.60;;;;;;5075144;28;20462;-60
2021/06/15 12:06:17;;;;;;;2.47;2.27;;;37.40;41.40;;;;;;5074477;28;20444;-60
2021/06/15 12:08:45;;;;;;;2.53;2.00;;;38.00;41.70;;;;;;5075082;28;20400;-60
2021/06/15 12:11:21;;;;;;;3.13;2.40;;;38.80;40.40;;;;;;5075100;28;20419;-60
2021/06/15 12:13:48;;;;;;;2.57;1.87;;;40.20;38.40;;;;;;5075078;28;20797;-60
2021/06/15 12:16:24;;;;;;;3.60;2.70;;;40.20;37.40;;;;;;5075868;28;20829;-60
2021/06/15 12:18:55;;;;;;;2.70;2.20;;;40.70;36.20;;;;;;5074553;28;20391;-60
2021/06/15 12:21:23;;;;;;;5.37;2.40;;;39.40;36.70;;;;;;5073895;28;20415;-60
2021/06/15 12:23:53;;;;;;;2.40;1.80;;;38.40;38.70;;;;;;5074774;28;20424;-60
2021/06/15 12:26:23;;;;;;;2.30;2.10;;;40.20;35.60;;;;;;5074719;28;20444;-60
2021/06/15 12:28:58;;;;;;;3.03;2.83;;;39.20;34.70;;;;;;5074799;28;20411;-60
2021/06/15 12:31:30;;;;;;;2.70;2.07;;;41.10;35.40;;;;;;5074809;28;20395;-60
2021/06/15 12:34:03;;;;;;;3.30;2.00;;;38.80;36.60;;;;;;5074531;28;20475;-60
2021/06/15 12:36:32;;;;;;;2.37;2.00;;;39.10;36.90;;;;;;5073729;28;20901;-60
2021/06/15 12:39:13;;;;;;;3.23;2.07;;;37.80;38.10;;;;;;5074578;28;20401;-60
2021/06/15 12:42:04;;;;;;;2.53;2.07;;;38.20;37.50;;;;;;5074818;28;20801;-60
2021/06/15 12:44:36;;;;;;;6.40;2.10;;;38.90;37.00;;;;;;5074235;28;20444;-60
2021/06/15 12:47:04;;;;;;;3.40;2.20;;;38.10;39.30;;;;;;5074639;28;20435;-60
2021/06/15 12:49:30;;;;;;;2.43;1.87;;;39.50;35.70;;;;;;5074121;28;20400;-60
2021/06/15 12:52:01;;;;;;;1.83;1.67;;;40.10;36.00;;;;;;5074031;28;20973;-60
2021/06/15 12:54:37;;;;;;;2.30;2.00;;;41.10;35.00;;;;;;5074836;28;20234;-59
2021/06/15 12:57:15;;;;;;;1.90;1.77;;;40.90;33.10;;;;;;5074569;28;20399;-60
2021/06/15 12:59:43;;;;;;;2.20;1.83;;;41.60;32.50;;;;;;5074161;28;20406;-59
2021/06/15 13:02:13;;;;;;;3.43;2.00;;;41.30;32.80;;;;;;5073899;28;20399;-60
2021/06/15 13:04:52;;;;;;;4.40;1.80;;;42.00;33.00;;;;;;5074155;28;20426;-60
2021/06/15 13:07:17;;;;;;;5.53;2.17;;;41.80;33.60;;;;;;5074266;28;20443;-60